createdAt,value
2022-08-23T00:02:02.737Z,478.52
2022-08-23T00:04:36.146Z,499.83
2022-08-23T00:07:04.654Z,502.38
2022-08-23T00:09:31.503Z,519.72
2022-08-23T00:12:33.931Z,508.17
2022-08-23T00:15:00.932Z,508.70
2022-08-23T00:17:48.019Z,514.83
2022-08-23T00:20:17.561Z,491.25
2022-08-23T00:22:44.473Z,493.98
2022-08-23T00:25:12.704Z,485.17
2022-08-23T00:27:39.866Z,509.27
2022-08-23T00:30:09.402Z,501.02
2022-08-23T00:32:37.720Z,504.98
2022-08-23T00:35:06.218Z,508.77
2022-08-23T00:37:33.816Z,516.55
2022-08-23T00:40:01.269Z,515.22
2022-08-23T00:42:59.153Z,502.08
2022-08-23T00:45:51.556Z,503.33
2022-08-23T00:48:18.409Z,524.30
2022-08-23T00:50:54.696Z,503.88
2022-08-23T00:53:28.706Z,527.58
2022-08-23T00:58:25.276Z,513.78
2022-08-23T01:00:55.221Z,548.13
2022-08-23T01:03:24.503Z,522.72
2022-08-23T01:06:12.714Z,543.92
2022-08-23T01:08:45.630Z,557.35
2022-08-23T01:11:26.390Z,551.10
2022-08-23T01:13:57.843Z,542.28
2022-08-23T01:16:33.701Z,558.83
2022-08-23T01:19:02.490Z,551.13
2022-08-23T01:21:39.654Z,529.20
2022-08-23T01:24:10.052Z,517.08
2022-08-23T01:26:47.895Z,532.03
2022-08-23T01:29:17.349Z,555.88
2022-08-23T01:31:44.337Z,574.10
2022-08-23T01:34:13.930Z,535.70
2022-08-23T01:36:43.564Z,543.63
2022-08-23T01:39:10.497Z,522.17
2022-08-23T01:41:40.699Z,512.00
2022-08-23T01:44:09.454Z,551.58
2022-08-23T01:46:37.619Z,560.80
2022-08-23T01:49:08.435Z,553.42
2022-08-23T01:51:35.908Z,532.53
2022-08-23T01:54:02.686Z,538.42
2022-08-23T01:56:38.400Z,535.78
2022-08-23T01:59:10.027Z,541.83
2022-08-23T02:01:41.933Z,536.55
2022-08-23T02:04:08.961Z,550.88
2022-08-23T02:10:42.806Z,535.55
2022-08-23T02:13:10.225Z,571.88
2022-08-23T02:15:39.889Z,564.97
2022-08-23T02:18:06.728Z,539.92
2022-08-23T02:20:33.693Z,547.72
2022-08-23T02:23:20.599Z,559.45
2022-08-23T02:25:48.008Z,534.45
2022-08-23T02:28:14.853Z,562.70
2022-08-23T02:30:44.164Z,562.40
2022-08-23T02:33:13.026Z,550.30
2022-08-23T02:38:26.827Z,588.10
2022-08-23T02:41:00.691Z,533.05
2022-08-23T02:43:29.975Z,551.88
2022-08-23T02:45:56.864Z,534.75
2022-08-23T02:48:23.877Z,550.38
2022-08-23T02:51:01.527Z,548.38
2022-08-23T02:53:29.442Z,569.45
2022-08-23T02:55:56.934Z,549.13
2022-08-23T02:58:24.161Z,533.63
2022-08-23T03:00:51.954Z,548.80
2022-08-23T03:03:22.567Z,575.22
2022-08-23T03:05:50.136Z,556.75
2022-08-23T03:08:18.340Z,580.60
2022-08-23T03:10:51.066Z,572.22
2022-08-23T03:13:18.930Z,557.92
2022-08-23T03:15:48.545Z,533.53
2022-08-23T03:18:15.501Z,565.75
2022-08-23T03:20:43.820Z,553.10
2022-08-23T03:23:12.059Z,579.70
2022-08-23T03:25:39.202Z,547.10
2022-08-23T03:30:44.380Z,545.78
2022-08-23T03:33:12.046Z,569.75
2022-08-23T03:35:39.507Z,585.45
2022-08-23T03:38:08.182Z,535.63
2022-08-23T03:40:35.356Z,582.05
2022-08-23T03:43:03.316Z,575.83
2022-08-23T03:45:31.136Z,590.30
2022-08-23T03:47:58.685Z,586.28
2022-08-23T03:50:26.478Z,558.40
2022-08-23T03:52:54.092Z,568.72
2022-08-23T03:55:21.215Z,638.22
2022-08-23T03:57:49.958Z,579.67
2022-08-23T04:00:20.258Z,558.90
2022-08-23T04:02:49.602Z,549.17
2022-08-23T04:05:16.981Z,527.15
2022-08-23T04:07:49.783Z,626.78
2022-08-23T04:10:17.683Z,599.83
2022-08-23T04:12:48.736Z,590.15
2022-08-23T04:15:18.844Z,592.58
2022-08-23T04:17:45.744Z,594.17
2022-08-23T04:20:12.745Z,601.55
2022-08-23T04:22:55.171Z,624.80
2022-08-23T04:25:34.631Z,592.00
2022-08-23T04:28:04.604Z,616.55
2022-08-23T04:30:32.887Z,570.13
2022-08-23T04:32:59.951Z,625.65
2022-08-23T04:35:29.988Z,592.97
2022-08-23T04:37:57.098Z,585.85
2022-08-23T04:40:43.788Z,569.30
2022-08-23T04:43:10.664Z,620.72
2022-08-23T04:45:39.134Z,589.47
2022-08-23T04:48:11.830Z,590.10
2022-08-23T04:50:42.495Z,591.58
2022-08-23T04:53:14.186Z,603.70
2022-08-23T04:55:56.243Z,570.20
2022-08-23T04:58:23.170Z,535.30
2022-08-23T05:00:53.271Z,510.63
2022-08-23T05:03:25.477Z,539.90
2022-08-23T05:05:53.977Z,466.23
2022-08-23T05:08:26.272Z,446.60
2022-08-23T05:10:53.761Z,416.38
2022-08-23T05:13:20.528Z,404.00
2022-08-23T05:15:52.963Z,393.05
2022-08-23T05:18:23.560Z,392.20
2022-08-23T05:20:51.268Z,353.25
2022-08-23T05:23:18.025Z,352.77
2022-08-23T05:25:53.815Z,331.40
2022-08-23T05:28:32.028Z,294.95
2022-08-23T05:31:06.969Z,293.30
2022-08-23T05:33:52.428Z,290.05
2022-08-23T05:36:27.492Z,245.55
2022-08-23T05:38:54.776Z,232.07
2022-08-23T05:41:22.010Z,223.38
2022-08-23T05:43:55.467Z,193.43
2022-08-23T05:46:26.601Z,177.98
2022-08-23T05:49:15.571Z,168.13
2022-08-23T05:51:51.675Z,150.45
2022-08-23T05:54:20.331Z,139.60
2022-08-23T05:56:56.857Z,127.22
2022-08-23T05:59:23.712Z,120.60
2022-08-23T06:01:50.626Z,107.18
2022-08-23T06:04:20.711Z,102.18
2022-08-23T06:06:48.604Z,101.65
2022-08-23T06:09:17.768Z,90.88
2022-08-23T06:11:46.874Z,86.70
2022-08-23T06:14:14.864Z,90.97
2022-08-23T06:16:46.398Z,76.00
2022-08-23T06:19:17.217Z,55.83
2022-08-23T06:21:47.101Z,73.45
2022-08-23T06:24:16.294Z,69.18
2022-08-23T06:27:01.874Z,77.68
2022-08-23T06:29:28.792Z,68.35
2022-08-23T06:32:14.416Z,83.07
2022-08-23T06:35:32.986Z,75.15
2022-08-23T06:38:13.249Z,67.00
2022-08-23T06:41:06.779Z,64.95
2022-08-23T06:43:59.066Z,52.95
2022-08-23T06:46:45.238Z,51.72
2022-08-23T06:49:12.746Z,46.13
2022-08-23T06:51:45.343Z,50.05
2022-08-23T06:54:21.312Z,41.88
2022-08-23T06:56:49.361Z,44.30
2022-08-23T06:59:20.485Z,35.53
2022-08-23T07:02:10.370Z,39.45
2022-08-23T07:05:04.698Z,36.90
2022-08-23T07:07:44.719Z,29.27
2022-08-23T07:10:15.518Z,38.30
2022-08-23T07:12:43.936Z,32.00
2022-08-23T07:15:13.530Z,34.47
2022-08-23T07:17:43.853Z,39.75
2022-08-23T07:20:11.103Z,26.75
2022-08-23T07:22:44.626Z,28.63
2022-08-23T07:25:12.413Z,34.67
2022-08-23T07:27:40.304Z,43.25
2022-08-23T07:30:08.940Z,33.40
2022-08-23T07:32:38.413Z,35.20
2022-08-23T07:35:21.610Z,32.72
2022-08-23T07:37:49.224Z,26.95
2022-08-23T07:40:20.729Z,49.15
2022-08-23T07:42:50.957Z,37.95
2022-08-23T07:45:18.706Z,36.10
2022-08-23T07:47:51.249Z,32.75
2022-08-23T07:50:20.039Z,41.03
2022-08-23T07:52:48.260Z,48.38
2022-08-23T07:55:17.981Z,43.15
2022-08-23T07:58:03.678Z,32.00
2022-08-23T08:00:53.926Z,39.47
2022-08-23T08:03:41.780Z,28.38
2022-08-23T08:06:22.705Z,33.70
2022-08-23T08:08:50.465Z,34.67
2022-08-23T08:11:20.540Z,35.42
2022-08-23T08:13:49.172Z,32.97
2022-08-23T08:16:34.993Z,32.10
2022-08-23T08:19:07.838Z,36.20
2022-08-23T08:22:13.123Z,38.33
2022-08-23T08:25:00.308Z,39.97
2022-08-23T08:27:28.019Z,37.75
2022-08-23T08:29:55.399Z,38.17
2022-08-23T08:32:22.190Z,38.03
2022-08-23T08:34:48.938Z,29.75
2022-08-23T08:37:15.764Z,39.42
2022-08-23T08:39:45.974Z,36.40
2022-08-23T08:42:57.660Z,36.53
2022-08-23T08:45:38.356Z,31.08
2022-08-23T08:48:13.502Z,36.60
2022-08-23T08:50:59.173Z,35.47
2022-08-23T08:53:35.588Z,35.60
2022-08-23T08:56:39.034Z,35.00
2022-08-23T08:59:26.942Z,34.92
2022-08-23T09:01:53.821Z,34.78
2022-08-23T09:04:31.791Z,40.85
2022-08-23T09:07:12.683Z,34.17
2022-08-23T09:09:58.256Z,35.33
2022-08-23T09:12:41.018Z,40.00
2022-08-23T09:15:17.503Z,39.78
2022-08-23T09:17:55.895Z,40.75
2022-08-23T09:20:32.697Z,45.53
2022-08-23T09:23:13.122Z,38.75
2022-08-23T09:25:41.979Z,34.10
2022-08-23T09:28:16.138Z,32.28
2022-08-23T09:31:02.660Z,43.47
2022-08-23T09:33:40.594Z,36.97
2022-08-23T09:36:25.834Z,29.70
2022-08-23T09:39:03.937Z,29.85
2022-08-23T09:41:43.630Z,35.17
2022-08-23T09:44:16.321Z,33.03
2022-08-23T09:49:30.132Z,41.05
2022-08-23T09:52:42.093Z,42.13
2022-08-23T09:55:27.631Z,41.17
2022-08-23T09:57:54.524Z,35.67
2022-08-23T10:00:34.107Z,35.92
2022-08-23T10:03:22.456Z,34.75
2022-08-23T10:06:01.594Z,39.33
2022-08-23T10:08:42.382Z,43.20
2022-08-23T10:11:25.836Z,45.90
2022-08-23T10:13:53.642Z,41.03
2022-08-23T10:16:46.382Z,41.78
2022-08-23T10:19:44.818Z,42.40
2022-08-23T10:22:27.716Z,47.67
2022-08-23T10:25:26.476Z,45.70
2022-08-23T10:28:30.668Z,44.85
2022-08-23T10:31:28.789Z,41.72
2022-08-23T10:34:20.929Z,49.03
2022-08-23T10:39:27.812Z,43.15
2022-08-23T10:42:17.174Z,53.00
2022-08-23T10:44:53.313Z,51.97
2022-08-23T10:47:33.720Z,60.67
2022-08-23T10:50:06.309Z,59.15
2022-08-23T10:52:40.175Z,57.58
2022-08-23T10:57:48.924Z,58.70
2022-08-23T11:00:24.543Z,62.90
2022-08-23T11:03:05.774Z,66.20
2022-08-23T11:05:38.751Z,55.70
2022-08-23T11:08:36.316Z,57.80
2022-08-23T11:11:39.592Z,66.22
2022-08-23T11:14:24.784Z,56.00
2022-08-23T11:16:59.376Z,52.10
2022-08-23T11:19:47.884Z,44.20
2022-08-23T11:22:19.194Z,51.00
2022-08-23T11:27:38.927Z,38.63
2022-08-23T11:30:34.995Z,36.85
2022-08-23T11:33:17.231Z,41.03
2022-08-23T11:36:09.408Z,34.05
2022-08-23T11:38:47.225Z,42.55
2022-08-23T11:41:20.533Z,41.90
2022-08-23T11:43:57.719Z,38.88
2022-08-23T11:46:25.809Z,40.95
2022-08-23T11:49:02.427Z,37.67
2022-08-23T11:51:45.038Z,42.20
2022-08-23T11:54:33.295Z,46.20
2022-08-23T11:57:10.114Z,35.60
2022-08-23T12:00:01.538Z,42.78
2022-08-23T12:02:38.624Z,37.10
2022-08-23T12:05:20.383Z,42.15
2022-08-23T12:07:54.734Z,41.50
2022-08-23T12:10:45.201Z,37.95
2022-08-23T12:13:21.097Z,40.05
2022-08-23T12:16:16.435Z,40.25
2022-08-23T12:18:47.620Z,41.30
2022-08-23T12:21:24.262Z,39.88
2022-08-23T12:23:56.589Z,32.80
2022-08-23T12:26:47.657Z,40.08
2022-08-23T12:29:32.751Z,40.38
2022-08-23T12:32:51.473Z,33.17
2022-08-23T12:35:29.095Z,38.92
2022-08-23T12:38:11.818Z,39.47
2022-08-23T12:43:27.176Z,34.55
2022-08-23T12:46:00.923Z,37.05
2022-08-23T12:48:33.886Z,31.05
2022-08-23T12:51:08.228Z,38.83
2022-08-23T12:53:45.607Z,32.40
2022-08-23T12:56:31.584Z,38.72
2022-08-23T12:59:08.100Z,41.20
2022-08-23T13:01:39.342Z,46.47
2022-08-23T13:04:14.824Z,38.05
2022-08-23T13:06:54.980Z,44.90
2022-08-23T13:09:33.137Z,37.35
2022-08-23T13:12:01.231Z,32.25
2022-08-23T13:14:39.883Z,33.97
2022-08-23T13:17:18.543Z,38.45
2022-08-23T13:19:48.128Z,43.88
2022-08-23T13:22:26.048Z,44.58
2022-08-23T13:27:58.724Z,50.47
2022-08-23T13:30:38.732Z,47.10
2022-08-23T13:33:08.806Z,41.33
2022-08-23T13:35:49.791Z,49.25
2022-08-23T13:38:26.288Z,46.15
2022-08-23T13:41:06.372Z,40.70
2022-08-23T13:43:37.963Z,32.80
2022-08-23T13:46:23.157Z,33.55
2022-08-23T13:49:05.789Z,39.63
2022-08-23T13:51:39.403Z,36.67
2022-08-23T13:54:09.536Z,38.00
2022-08-23T13:56:51.835Z,44.05
2022-08-23T13:59:31.605Z,46.45
2022-08-23T14:02:01.656Z,52.90
2022-08-23T14:04:28.884Z,47.13
2022-08-23T14:06:55.755Z,51.05
2022-08-23T14:09:22.472Z,47.47
2022-08-23T14:11:54.657Z,40.72
2022-08-23T14:14:21.660Z,46.75
2022-08-23T14:16:48.468Z,49.35
2022-08-23T14:19:18.083Z,45.50
2022-08-23T14:22:02.245Z,43.50
2022-08-23T14:24:29.057Z,51.25
2022-08-23T14:26:57.214Z,47.33
2022-08-23T14:29:28.002Z,38.08
2022-08-23T14:31:56.071Z,44.00
2022-08-23T14:34:23.452Z,55.33
2022-08-23T14:39:39.323Z,60.35
2022-08-23T14:42:06.332Z,50.88
2022-08-23T14:44:36.313Z,63.83
2022-08-23T14:47:05.331Z,62.22
2022-08-23T14:49:32.412Z,70.10
2022-08-23T14:51:59.590Z,69.57
2022-08-23T14:54:26.604Z,67.43
2022-08-23T14:56:54.008Z,96.00
2022-08-23T14:59:21.163Z,102.80
2022-08-23T15:01:49.614Z,127.72
2022-08-23T15:04:20.504Z,142.82
2022-08-23T15:07:13.790Z,161.65
2022-08-23T15:09:34.916Z,146.27
2022-08-23T15:14:50.437Z,198.80
2022-08-23T15:17:17.410Z,195.70
2022-08-23T15:19:44.357Z,211.90
2022-08-23T15:22:18.617Z,217.77
2022-08-23T15:24:49.198Z,201.43
2022-08-23T15:27:17.070Z,221.73
2022-08-23T15:29:44.077Z,219.95
2022-08-23T15:32:12.509Z,232.18
2022-08-23T15:34:44.968Z,256.65
2022-08-23T15:37:12.983Z,272.15
2022-08-23T15:39:41.906Z,262.92
2022-08-23T15:42:08.811Z,262.10
2022-08-23T15:44:35.556Z,273.98
2022-08-23T15:47:04.864Z,288.50
2022-08-23T15:49:36.298Z,290.17
2022-08-23T15:52:04.391Z,266.77
2022-08-23T15:54:31.475Z,296.48
2022-08-23T15:56:58.526Z,289.95
2022-08-23T15:59:25.382Z,273.17
2022-08-23T16:01:52.589Z,247.80
2022-08-23T16:04:19.474Z,263.70
2022-08-23T16:06:46.853Z,263.90
2022-08-23T16:09:21.074Z,269.13
2022-08-23T16:11:49.293Z,256.58
2022-08-23T16:14:16.452Z,246.13
2022-08-23T16:16:46.665Z,230.88
2022-08-23T16:19:14.882Z,249.38
2022-08-23T16:21:44.400Z,263.77
2022-08-23T16:24:11.798Z,276.83
2022-08-23T16:26:41.790Z,251.45
2022-08-23T16:29:13.315Z,250.85
2022-08-23T16:31:41.225Z,246.43
2022-08-23T16:34:11.415Z,261.20
2022-08-23T16:36:44.753Z,262.90
2022-08-23T16:39:13.824Z,260.23
2022-08-23T16:41:40.761Z,265.15
2022-08-23T16:44:07.737Z,275.08
2022-08-23T16:46:36.367Z,276.48
2022-08-23T16:49:03.833Z,267.35
2022-08-23T16:51:30.723Z,277.45
2022-08-23T16:54:03.183Z,288.85
2022-08-23T16:56:34.268Z,276.38
2022-08-23T16:59:02.302Z,292.83
2022-08-23T17:01:29.727Z,303.00
2022-08-23T17:03:56.814Z,300.83
2022-08-23T17:06:23.992Z,267.13
2022-08-23T17:08:51.073Z,326.27
2022-08-23T17:11:19.873Z,276.63
2022-08-23T17:13:47.054Z,309.58
2022-08-23T17:16:13.860Z,304.00
2022-08-23T17:18:41.124Z,327.67
2022-08-23T17:21:09.634Z,308.65
2022-08-23T17:23:40.343Z,328.65
2022-08-23T17:26:09.464Z,321.55
2022-08-23T17:28:36.562Z,339.70
2022-08-23T17:31:03.545Z,348.67
2022-08-23T17:33:30.463Z,348.65
2022-08-23T17:35:57.514Z,361.92
2022-08-23T17:38:24.408Z,359.52
2022-08-23T17:40:52.246Z,352.70
2022-08-23T17:43:19.292Z,376.27
2022-08-23T17:45:49.953Z,359.15
2022-08-23T17:48:18.695Z,373.63
2022-08-23T17:50:46.913Z,385.50
2022-08-23T17:53:15.438Z,374.88
2022-08-23T17:55:43.076Z,378.80
2022-08-23T17:58:10.776Z,370.65
2022-08-23T18:00:39.359Z,371.27
2022-08-23T18:03:07.303Z,388.40
2022-08-23T18:05:37.204Z,384.48
2022-08-23T18:08:04.491Z,395.25
2022-08-23T18:10:31.457Z,392.33
2022-08-23T18:12:58.738Z,413.08
2022-08-23T18:15:28.813Z,392.73
2022-08-23T18:17:56.423Z,392.60
2022-08-23T18:20:26.956Z,418.27
2022-08-23T18:22:56.262Z,413.35
2022-08-23T18:25:24.012Z,396.67
2022-08-23T18:28:11.163Z,398.83
2022-08-23T18:30:48.477Z,439.23
2022-08-23T18:33:16.975Z,421.70
2022-08-23T18:35:45.651Z,423.70
2022-08-23T18:38:13.672Z,426.10
2022-08-23T18:40:45.981Z,423.33
2022-08-23T18:43:19.092Z,414.00
2022-08-23T18:45:48.244Z,451.88
2022-08-23T18:48:15.340Z,443.98
2022-08-23T18:50:42.757Z,419.27
2022-08-23T18:53:10.595Z,421.98
2022-08-23T18:55:37.338Z,469.27
2022-08-23T18:58:04.542Z,435.17
2022-08-23T19:00:32.286Z,432.77
2022-08-23T19:03:00.268Z,437.15
2022-08-23T19:05:27.422Z,436.05
2022-08-23T19:08:10.297Z,439.65
2022-08-23T19:10:37.688Z,444.77
2022-08-23T19:13:05.927Z,465.77
2022-08-23T19:15:34.639Z,431.63
2022-08-23T19:18:02.656Z,448.17
2022-08-23T19:20:29.638Z,429.65
2022-08-23T19:22:57.230Z,422.27
2022-08-23T19:25:24.917Z,432.58
2022-08-23T19:27:54.085Z,459.73
2022-08-23T19:30:20.990Z,444.70
2022-08-23T19:32:47.881Z,461.85
2022-08-23T19:35:14.743Z,452.17
2022-08-23T19:37:41.726Z,435.70
2022-08-23T19:40:09.379Z,440.10
2022-08-23T19:42:37.945Z,439.45
2022-08-23T19:45:06.660Z,433.25
2022-08-23T19:47:34.814Z,429.77
2022-08-23T19:50:04.035Z,463.15
2022-08-23T19:52:31.939Z,419.25
2022-08-23T19:55:05.672Z,455.77
2022-08-23T19:57:35.515Z,432.00
2022-08-23T20:00:07.578Z,448.08
2022-08-23T20:02:34.505Z,443.73
2022-08-23T20:05:01.242Z,460.02
2022-08-23T20:07:28.549Z,434.80
2022-08-23T20:09:58.757Z,427.05
2022-08-23T20:12:29.970Z,435.17
2022-08-23T20:14:56.808Z,429.20
2022-08-23T20:17:23.635Z,424.08
2022-08-23T20:19:51.900Z,467.98
2022-08-23T20:22:37.293Z,459.20
2022-08-23T20:25:06.954Z,465.30
2022-08-23T20:27:37.269Z,461.88
2022-08-23T20:30:06.919Z,433.00
2022-08-23T20:32:34.579Z,464.58
2022-08-23T20:35:02.420Z,445.42
2022-08-23T20:37:29.828Z,433.27
2022-08-23T20:39:56.736Z,460.73
2022-08-23T20:42:23.785Z,454.13
2022-08-23T20:44:50.663Z,466.50
2022-08-23T20:47:17.680Z,475.30
2022-08-23T20:49:44.536Z,466.45
2022-08-23T20:52:12.052Z,437.92
2022-08-23T20:54:39.346Z,428.35
2022-08-23T20:57:06.114Z,462.45
2022-08-23T20:59:33.057Z,451.70
2022-08-23T21:01:59.809Z,456.08
2022-08-23T21:04:29.861Z,451.50
2022-08-23T21:06:57.656Z,472.65
2022-08-23T21:09:29.450Z,456.50
2022-08-23T21:11:57.413Z,472.52
2022-08-23T21:14:24.327Z,444.23
2022-08-23T21:16:51.202Z,462.50
2022-08-23T21:19:18.961Z,463.92
2022-08-23T21:21:45.938Z,463.85
2022-08-23T21:24:13.021Z,437.67
2022-08-23T21:26:40.303Z,475.42
2022-08-23T21:29:09.491Z,485.58
2022-08-23T21:31:36.970Z,471.50
2022-08-23T21:34:04.237Z,484.08
2022-08-23T21:36:31.198Z,452.83
2022-08-23T21:38:57.992Z,454.98
2022-08-23T21:41:31.954Z,500.73
2022-08-23T21:46:26.639Z,496.70
2022-08-23T21:48:53.516Z,499.80
2022-08-23T21:51:20.802Z,486.17
2022-08-23T21:53:47.702Z,495.35
2022-08-23T21:56:14.812Z,509.75
2022-08-23T21:58:41.781Z,480.83
2022-08-23T22:01:09.084Z,532.70
2022-08-23T22:03:36.894Z,512.92
2022-08-23T22:06:04.048Z,487.50
2022-08-23T22:08:31.168Z,506.85
2022-08-23T22:10:59.387Z,503.08
2022-08-23T22:13:28.625Z,462.05
2022-08-23T22:15:56.171Z,495.77
2022-08-23T22:18:23.082Z,482.98
2022-08-23T22:20:49.908Z,491.00
2022-08-23T22:23:17.291Z,535.75
2022-08-23T22:25:44.269Z,482.05
2022-08-23T22:28:11.026Z,490.48
2022-08-23T22:30:37.757Z,496.73
2022-08-23T22:33:04.781Z,514.72
2022-08-23T22:35:35.119Z,511.55
2022-08-23T22:38:13.701Z,502.83
2022-08-23T22:40:51.039Z,518.05
2022-08-23T22:43:19.440Z,534.53
2022-08-23T22:45:58.432Z,521.15
2022-08-23T22:48:29.190Z,503.58
2022-08-23T22:51:07.234Z,507.80
2022-08-23T22:53:35.812Z,493.80
2022-08-23T22:56:03.323Z,541.50
2022-08-23T22:58:30.380Z,519.30
2022-08-23T23:00:57.292Z,482.23
2022-08-23T23:03:24.081Z,513.17
2022-08-23T23:05:51.101Z,509.85
2022-08-23T23:08:27.161Z,499.60
2022-08-23T23:11:05.914Z,537.95
2022-08-23T23:13:33.696Z,521.28
2022-08-23T23:16:07.703Z,523.55
2022-08-23T23:18:35.524Z,526.88
2022-08-23T23:21:04.609Z,518.17
2022-08-23T23:23:32.750Z,512.03
2022-08-23T23:25:59.780Z,528.03
2022-08-23T23:28:27.563Z,517.92
2022-08-23T23:30:55.292Z,526.55
2022-08-23T23:33:23.425Z,552.53
2022-08-23T23:35:54.144Z,517.90
2022-08-23T23:38:21.597Z,531.25
2022-08-23T23:40:48.341Z,497.88
2022-08-23T23:43:15.290Z,503.02
2022-08-23T23:45:42.500Z,521.58
2022-08-23T23:48:09.941Z,518.45
2022-08-23T23:50:41.583Z,549.60
2022-08-23T23:53:13.662Z,504.60
2022-08-23T23:55:40.455Z,536.10
2022-08-23T23:58:07.228Z,528.00
